KOPF/OPF METAR and TAF weather

Enter ICAO airport designator
Station Type Date Time Source
KOPF METAR 2020/04/05 11:53 UTC NOAA

KOPF 051153Z 00000KT 10SM FEW020 SCT150 22/19 A2996 RMK AO2 SLP146 T02220189 10239 20206 53016


Station Type Date Time Source
KOPF Decoded METAR 2020/04/05 11:53 UTC NOAA

MIAMI OPA LOCKA AIRPORT, FL, United States (KOPF) 25-54N 80-17W 16M
Apr 05, 2020 - 07:53 AM EDT / 2020.04.05 1153 UTC
Wind: Calm:0
Visibility: 10 mile(s):0
Sky conditions: partly cloudy
Temperature: 72.0 F (22.2 C)
Dew Point: 66.0 F (18.9 C)
Relative Humidity: 81%
Pressure (altimeter): 29.96 in. Hg (1014 hPa)
Pressure tendency: 0.05 inches (1.6 hPa) higher than three hours ago
ob: KOPF 051153Z 00000KT 10SM FEW020 SCT150 22/19 A2996 RMK AO2 SLP146 T02220189 10239 20206 53016
cycle: 12

Station Type Date Time Source
KOPF TAF 2020/04/05 12:48 UTC NOAA

TAF KOPF 051145Z 0512/0612 VRB05KT P6SM FEW030 SCT050
FM051700 15008KT P6SM VCSH FEW025 SCT035 BKN050
FM060600 11005KT P6SM FEW015 SCT035 BKN050

Example: see airport list